createdAt,value
2022-11-30T00:04:39.365Z,1023.6
2022-11-30T00:09:39.489Z,1023.5
2022-11-30T00:14:39.818Z,1023.5
2022-11-30T00:19:39.940Z,1023.5
2022-11-30T00:24:40.197Z,1023.5
2022-11-30T00:29:39.357Z,1023.5
2022-11-30T00:34:39.818Z,1023.5
2022-11-30T00:39:40.044Z,1023.6
2022-11-30T00:44:39.425Z,1023.6
2022-11-30T00:49:39.834Z,1023.8
2022-11-30T00:54:39.170Z,1023.8
2022-11-30T00:59:39.431Z,1023.8
2022-11-30T01:04:40.103Z,1023.8
2022-11-30T01:09:39.413Z,1023.8
2022-11-30T01:14:39.623Z,1023.8
2022-11-30T01:19:39.890Z,1024
2022-11-30T01:24:39.258Z,1024
2022-11-30T01:29:39.435Z,1023.8
2022-11-30T01:34:39.830Z,1023.8
2022-11-30T01:39:40.298Z,1023.9
2022-11-30T01:44:39.599Z,1023.9
2022-11-30T01:49:39.798Z,1023.8
2022-11-30T01:54:40.202Z,1023.8
2022-11-30T01:59:39.509Z,1023.7
2022-11-30T02:04:39.961Z,1023.7
2022-11-30T02:09:40.264Z,1023.7
2022-11-30T02:14:39.556Z,1023.7
2022-11-30T02:19:39.911Z,1023.9
2022-11-30T02:24:39.257Z,1023.9
2022-11-30T02:29:39.598Z,1023.8
2022-11-30T02:34:39.744Z,1023.8
2022-11-30T02:39:40.036Z,1023.9
2022-11-30T02:44:39.388Z,1023.9
2022-11-30T02:49:40.285Z,1023.9
2022-11-30T02:54:39.340Z,1023.9
2022-11-30T02:59:40.214Z,1023.9
2022-11-30T03:04:39.748Z,1023.9
2022-11-30T03:09:40.257Z,1023.9
2022-11-30T03:14:39.319Z,1023.9
2022-11-30T03:19:39.471Z,1024.1
2022-11-30T03:24:39.378Z,1024.1
2022-11-30T03:29:40.183Z,1024.1
2022-11-30T03:34:39.864Z,1024.1
2022-11-30T03:39:40.072Z,1024.1
2022-11-30T03:44:40.177Z,1024.1
2022-11-30T03:49:39.526Z,1024.2
2022-11-30T03:54:39.754Z,1024.2
2022-11-30T03:59:39.986Z,1024.1
2022-11-30T04:04:39.960Z,1024.1
2022-11-30T04:09:39.844Z,1024.2
2022-11-30T04:14:39.843Z,1024.2
2022-11-30T04:19:40.073Z,1024.3
2022-11-30T04:24:40.095Z,1024.3
2022-11-30T04:29:40.026Z,1024.3
2022-11-30T04:34:39.454Z,1024.3
2022-11-30T04:39:39.940Z,1024.4
2022-11-30T04:44:39.533Z,1024.4
2022-11-30T04:49:39.750Z,1024.4
2022-11-30T04:54:40.084Z,1024.4
2022-11-30T04:59:40.318Z,1024.3
2022-11-30T05:04:39.731Z,1024.3
2022-11-30T05:09:40.149Z,1024.3
2022-11-30T05:14:39.809Z,1024.3
2022-11-30T05:19:40.159Z,1024.5
2022-11-30T05:24:39.496Z,1024.5
2022-11-30T05:29:39.723Z,1024.7
2022-11-30T05:34:51.940Z,1024.7
2022-11-30T05:39:39.574Z,1024.7
2022-11-30T05:44:39.729Z,1024.7
2022-11-30T05:49:40.105Z,1024.8
2022-11-30T05:54:39.502Z,1024.8
2022-11-30T05:59:39.651Z,1024.8
2022-11-30T06:04:40.122Z,1024.8
2022-11-30T06:09:39.419Z,1025
2022-11-30T06:14:39.755Z,1025
2022-11-30T06:19:49.722Z,1025
2022-11-30T06:24:40.340Z,1025
2022-11-30T06:29:39.691Z,1025
2022-11-30T06:34:40.230Z,1025
2022-11-30T06:40:07.731Z,1025.2
2022-11-30T06:44:39.450Z,1025.2
2022-11-30T06:49:39.494Z,1025.2
2022-11-30T06:54:39.811Z,1025.2
2022-11-30T06:59:40.063Z,1025.3
2022-11-30T07:04:40.134Z,1025.3
2022-11-30T07:09:39.796Z,1025.2
2022-11-30T07:14:39.462Z,1025.2
2022-11-30T07:19:39.631Z,1025.3
2022-11-30T07:24:40.341Z,1025.3
2022-11-30T07:29:39.582Z,1025.4
2022-11-30T07:34:39.819Z,1025.4
2022-11-30T07:39:40.074Z,1025.4
2022-11-30T07:44:40.401Z,1025.4
2022-11-30T07:49:39.789Z,1025.4
2022-11-30T07:54:39.957Z,1025.4
2022-11-30T07:59:40.173Z,1025.5
2022-11-30T08:04:40.411Z,1025.5
2022-11-30T08:09:40.306Z,1025.7
2022-11-30T08:15:20.242Z,1025.7
2022-11-30T08:19:40.334Z,1025.6
2022-11-30T08:24:39.968Z,1025.6
2022-11-30T08:29:40.170Z,1025.7
2022-11-30T08:34:39.831Z,1025.7
2022-11-30T08:39:40.157Z,1025.8
2022-11-30T08:44:39.535Z,1025.8
2022-11-30T08:49:39.782Z,1025.8
2022-11-30T08:54:39.648Z,1025.8
2022-11-30T08:59:40.335Z,1025.9
2022-11-30T09:04:39.580Z,1025.9
2022-11-30T09:09:40.399Z,1026
2022-11-30T09:14:39.850Z,1026
2022-11-30T09:19:40.306Z,1026.1
2022-11-30T09:24:39.765Z,1026.1
2022-11-30T09:29:40.276Z,1026.2
2022-11-30T09:34:39.505Z,1026.2
2022-11-30T09:39:39.872Z,1026.2
2022-11-30T09:44:40.175Z,1026.2
2022-11-30T09:49:39.626Z,1026.2
2022-11-30T09:54:40.334Z,1026.2
2022-11-30T09:59:39.635Z,1026.2
2022-11-30T10:04:39.764Z,1026.2
2022-11-30T10:09:40.384Z,1026.2
2022-11-30T10:14:40.095Z,1026.2
2022-11-30T10:19:39.652Z,1026.2
2022-11-30T10:24:40.001Z,1026.2
2022-11-30T10:29:40.209Z,1026.1
2022-11-30T10:34:39.780Z,1026.1
2022-11-30T10:39:41.265Z,1026.1
2022-11-30T10:44:40.488Z,1026.1
2022-11-30T10:49:40.104Z,1026.1
2022-11-30T10:54:40.433Z,1026.1
2022-11-30T10:59:39.956Z,1026.1
2022-11-30T11:04:40.383Z,1026.1
2022-11-30T11:09:40.181Z,1026
2022-11-30T11:14:39.831Z,1026
2022-11-30T11:19:40.147Z,1026
2022-11-30T11:24:40.428Z,1026
2022-11-30T11:29:39.789Z,1026.1
2022-11-30T11:34:40.092Z,1026.1
2022-11-30T11:39:40.286Z,1026.1
2022-11-30T11:44:40.642Z,1026.1
2022-11-30T11:49:40.124Z,1026
2022-11-30T11:54:40.353Z,1026
2022-11-30T11:59:39.814Z,1026.1
2022-11-30T12:04:40.316Z,1026.1
2022-11-30T12:09:39.650Z,1026.2
2022-11-30T12:14:39.972Z,1026.2
2022-11-30T12:19:40.171Z,1026.2
2022-11-30T12:24:40.313Z,1026.2
2022-11-30T12:29:40.556Z,1026.2
2022-11-30T12:34:39.764Z,1026.2
2022-11-30T12:39:40.088Z,1026.2
2022-11-30T12:44:42.872Z,1026.2
2022-11-30T12:49:40.103Z,1026.3
2022-11-30T12:54:40.343Z,1026.3
2022-11-30T12:59:40.426Z,1026.3
2022-11-30T13:04:39.714Z,1026.3
2022-11-30T13:09:39.957Z,1026.4
2022-11-30T13:14:39.872Z,1026.4
2022-11-30T13:19:40.220Z,1026.4
2022-11-30T13:24:40.420Z,1026.4
2022-11-30T13:29:40.815Z,1026.4
2022-11-30T13:34:40.393Z,1026.4
2022-11-30T13:39:40.652Z,1026.5
2022-11-30T13:44:39.930Z,1026.5
2022-11-30T13:49:40.122Z,1026.5
2022-11-30T13:54:40.396Z,1026.5
2022-11-30T13:59:40.595Z,1026.5
2022-11-30T14:04:40.424Z,1026.5
2022-11-30T14:09:40.748Z,1026.6
2022-11-30T14:14:46.362Z,1026.6
2022-11-30T14:19:40.130Z,1026.6
2022-11-30T14:24:40.494Z,1026.6
2022-11-30T14:29:40.408Z,1026.7
2022-11-30T14:34:40.615Z,1026.7
2022-11-30T14:39:39.892Z,1026.7
2022-11-30T14:44:40.196Z,1026.7
2022-11-30T14:49:40.749Z,1026.7
2022-11-30T14:54:39.885Z,1026.7
2022-11-30T14:59:40.673Z,1026.7
2022-11-30T15:04:40.558Z,1026.7
2022-11-30T15:09:39.979Z,1026.7
2022-11-30T15:14:40.554Z,1026.7
2022-11-30T15:19:40.454Z,1026.7
2022-11-30T15:24:39.838Z,1026.7
2022-11-30T15:29:40.699Z,1026.7
2022-11-30T15:34:40.360Z,1026.7
2022-11-30T15:39:40.688Z,1026.8
2022-11-30T15:44:40.587Z,1026.8
2022-11-30T15:49:40.382Z,1026.8
2022-11-30T15:54:40.457Z,1026.8
2022-11-30T15:59:40.655Z,1026.9
2022-11-30T16:04:40.643Z,1026.9
2022-11-30T16:09:40.415Z,1026.9
2022-11-30T16:14:40.533Z,1026.9
2022-11-30T16:19:40.477Z,1027
2022-11-30T16:24:40.317Z,1027
2022-11-30T16:29:39.894Z,1027.1
2022-11-30T16:34:40.425Z,1027.1
2022-11-30T16:39:39.863Z,1027.2
2022-11-30T16:44:40.296Z,1027.2
2022-11-30T16:49:40.595Z,1027.3
2022-11-30T16:54:40.195Z,1027.3
2022-11-30T16:59:40.483Z,1027.3
2022-11-30T17:04:39.913Z,1027.3
2022-11-30T17:09:40.257Z,1027.3
2022-11-30T17:14:40.783Z,1027.3
2022-11-30T17:19:40.308Z,1027.3
2022-11-30T17:24:40.608Z,1027.3
2022-11-30T17:29:39.855Z,1027.4
2022-11-30T17:34:40.208Z,1027.4
2022-11-30T17:39:40.462Z,1027.6
2022-11-30T17:44:40.803Z,1027.6
2022-11-30T17:49:40.166Z,1027.6
2022-11-30T17:54:40.509Z,1027.6
2022-11-30T17:59:39.920Z,1027.6
2022-11-30T18:04:40.166Z,1027.6
2022-11-30T18:09:43.301Z,1027.8
2022-11-30T18:14:40.588Z,1027.8
2022-11-30T18:19:39.962Z,1027.8
2022-11-30T18:24:40.272Z,1027.8
2022-11-30T18:29:40.631Z,1027.9
2022-11-30T18:34:40.938Z,1027.9
2022-11-30T18:39:40.266Z,1028
2022-11-30T18:44:40.629Z,1028
2022-11-30T18:49:40.847Z,1028.1
2022-11-30T18:54:40.131Z,1028.1
2022-11-30T18:59:40.383Z,1028.2
2022-11-30T19:04:40.784Z,1028.2
2022-11-30T19:09:40.318Z,1028.2
2022-11-30T19:14:40.777Z,1028.2
2022-11-30T19:19:40.017Z,1028.3
2022-11-30T19:24:40.395Z,1028.3
2022-11-30T19:29:40.212Z,1028.3
2022-11-30T19:34:40.924Z,1028.3
2022-11-30T19:39:40.307Z,1028.3
2022-11-30T19:44:40.613Z,1028.3
2022-11-30T19:49:39.990Z,1028.5
2022-11-30T19:54:40.249Z,1028.5
2022-11-30T19:59:40.590Z,1028.5
2022-11-30T20:04:40.209Z,1028.5
2022-11-30T20:09:40.574Z,1028.6
2022-11-30T20:14:39.923Z,1028.6
2022-11-30T20:19:40.449Z,1028.6
2022-11-30T20:24:40.786Z,1028.6
2022-11-30T20:29:40.410Z,1028.8
2022-11-30T20:34:44.173Z,1028.8
2022-11-30T20:39:46.513Z,1028.8
2022-11-30T20:44:40.839Z,1028.8
2022-11-30T20:49:40.414Z,1028.8
2022-11-30T20:54:40.197Z,1028.8
2022-11-30T20:59:40.624Z,1028.8
2022-11-30T21:04:40.486Z,1028.8
2022-11-30T21:09:40.218Z,1028.9
2022-11-30T21:14:40.409Z,1028.9
2022-11-30T21:19:40.045Z,1028.8
2022-11-30T21:24:40.446Z,1028.8
2022-11-30T21:29:40.330Z,1028.8
2022-11-30T21:34:40.032Z,1028.8
2022-11-30T21:39:40.972Z,1028.9
2022-11-30T21:44:40.419Z,1028.9
2022-11-30T21:49:40.952Z,1028.8
2022-11-30T21:54:40.448Z,1028.8
2022-11-30T21:59:40.976Z,1028.7
2022-11-30T22:04:40.389Z,1028.7
2022-11-30T22:09:40.843Z,1028.7
2022-11-30T22:14:40.422Z,1028.7
2022-11-30T22:19:40.823Z,1028.8
2022-11-30T22:24:40.246Z,1028.8
2022-11-30T22:29:40.562Z,1028.7
2022-11-30T22:34:41.012Z,1028.7
2022-11-30T22:39:40.499Z,1028.8
2022-11-30T22:44:40.953Z,1028.8
2022-11-30T22:49:40.644Z,1028.8
2022-11-30T22:54:41.184Z,1028.8
2022-11-30T22:59:40.491Z,1028.8
2022-11-30T23:04:40.979Z,1028.8
2022-11-30T23:09:40.501Z,1028.8
2022-11-30T23:14:41.110Z,1028.8
2022-11-30T23:19:40.694Z,1028.8
2022-11-30T23:24:40.120Z,1028.8
2022-11-30T23:29:40.441Z,1028.9
2022-11-30T23:34:40.847Z,1028.9
2022-11-30T23:39:40.252Z,1028.9
2022-11-30T23:44:40.415Z,1028.9
2022-11-30T23:49:40.670Z,1029
2022-11-30T23:54:40.959Z,1029
2022-11-30T23:59:40.262Z,1028.9
